Nearby METAR Reports

YMHB - Hobart/Tasmania, Australia
Distance from Franklin: NE 48km
Updated: 24/01/2018 10:00
Partly cloudy
Partly cloudy
 Wind from NNW
Wind: NNW 15 km/h
Temperature: 21°C
Dew Point: 7°C
Humidity: 40%
Barometer: 1008 hPa
Clouds: Partly cloudy
Visibility: 10 km
Cloud details: Few Clouds 1524 m
Partly cloudy 9144 m
2018/01/23 23:00 YMHB 232300Z 33008KT 9999 FEW050 SCT300 21/07 Q1008
YMLT - Launceston Airpo, Australia
Distance from Franklin: N 176km
Updated: 24/01/2018 10:00
Clear
Clear
 Wind from NNW
Wind: NNW 15 km/h
Temperature: 21°C
Dew Point: 8°C
Humidity: 43%
Barometer: 1008 hPa
Clouds: Clear
Visibility: 10 km
2018/01/23 23:00 YMLT 232300Z AUTO 34008KT 9999 // NCD 21/08 Q1008
 
YMAV - Avalon Airport, Australia
Distance from Franklin: NNW 601km
Updated: 24/01/2018 10:00
Overcast
Overcast
 Wind from SSE
Wind: SSE 13 km/h
Temperature: 21°C
Dew Point: 15°C
Humidity: 69%
Barometer: 1011 hPa
Clouds: Overcast
Visibility: 10 km
Cloud details: Overcast 732 m
2018/01/23 23:00 YMAV 232300Z AUTO 15007KT 9999 // OVC024 21/15 Q1011
YMML - Melbourne Intl A, Australia
Distance from Franklin: NNW 631km
Updated: 24/01/2018 10:00
Mostly cloudy
Mostly cloudy
 Wind from S
Wind: S 15 km/h
Temperature: 19°C
Dew Point: 13°C
Humidity: 68%
Barometer: 1011 hPa
Clouds: Mostly cloudy
Visibility: 10 km
Cloud details: Mostly cloudy 610 m
2018/01/23 23:00 YMML 232300Z 17008KT 9999 BKN020 19/13 Q1011